Time;durP1;ratioP1;P1;durP2;ratioP2;P2;SDS_P1;SDS_P2;PMS_P1;PMS_P2;Temp;Humidity;BMP_temperature;BMP_pressure;BME280_temperature;BME280_humidity;BME280_pressure;Samples;Min_cycle;Max_cycle;Signal;HPM_P1;HPM_P2
2022/11/04 00:01:24;;;;;;;19.10;16.00;;;11.10;99.90;;;;;;5021138;28;20049;-61
2022/11/04 00:03:50;;;;;;;17.77;15.48;;;11.30;99.90;;;;;;5003135;28;20033;-61
2022/11/04 00:06:16;;;;;;;18.23;16.38;;;11.30;99.90;;;;;;5013623;28;20052;-61
2022/11/04 00:08:42;;;;;;;18.70;16.35;;;11.10;99.90;;;;;;5001805;28;20049;-60
2022/11/04 00:13:54;;;;;;;20.20;16.98;;;11.10;99.90;;;;;;5002243;28;20081;-60
2022/11/04 00:19:04;;;;;;;16.58;14.90;;;11.10;99.90;;;;;;5002299;28;20054;-60
2022/11/04 00:29:43;;;;;;;17.50;14.30;;;11.20;99.90;;;;;;5001305;28;20433;-60
2022/11/04 00:34:54;;;;;;;15.73;13.38;;;11.30;99.90;;;;;;5000944;28;20481;-61
2022/11/04 00:37:19;;;;;;;15.38;13.80;;;11.30;99.90;;;;;;5001107;28;20081;-61
2022/11/04 00:39:45;;;;;;;15.35;13.85;;;11.20;99.90;;;;;;5001069;28;20053;-61
2022/11/04 00:42:11;;;;;;;17.38;14.38;;;11.20;99.90;;;;;;5004088;28;20204;-60
2022/11/04 00:44:36;;;;;;;16.10;13.68;;;11.20;99.90;;;;;;5006681;28;20041;-61
2022/11/04 00:47:02;;;;;;;16.83;15.02;;;11.20;99.90;;;;;;5005430;28;20531;-61
2022/11/04 00:49:28;;;;;;;16.20;14.50;;;11.00;99.90;;;;;;5005957;28;20046;-61
2022/11/04 00:51:54;;;;;;;16.50;14.57;;;11.00;99.90;;;;;;5005534;28;20424;-61
2022/11/04 00:54:19;;;;;;;17.02;15.32;;;11.00;99.90;;;;;;5005722;28;20599;-61
2022/11/04 00:56:47;;;;;;;16.55;14.77;;;11.00;99.90;;;;;;5005210;28;20076;-61
2022/11/04 00:59:13;;;;;;;15.75;13.98;;;11.00;99.90;;;;;;5005574;28;20057;-61
2022/11/04 01:01:39;;;;;;;17.35;15.48;;;11.10;99.90;;;;;;5005633;28;20053;-61
2022/11/04 01:04:04;;;;;;;18.50;15.82;;;10.90;99.90;;;;;;5005805;28;20049;-61
2022/11/04 01:06:30;;;;;;;16.48;13.88;;;11.10;99.90;;;;;;5016464;28;20045;-61
2022/11/04 01:08:58;;;;;;;15.98;14.25;;;10.90;99.90;;;;;;5005247;28;20481;-60
2022/11/04 01:11:24;;;;;;;14.55;13.07;;;11.00;99.90;;;;;;5004090;28;20055;-60
2022/11/04 01:13:50;;;;;;;12.80;11.40;;;10.90;99.90;;;;;;5005511;28;20116;-60
2022/11/04 01:16:17;;;;;;;11.88;9.40;;;11.00;99.90;;;;;;4988428;28;20065;-61
2022/11/04 01:18:43;;;;;;;10.02;9.02;;;11.00;99.90;;;;;;5005061;28;20463;-60
2022/11/04 01:21:14;;;;;;;9.77;8.60;;;10.90;99.90;;;;;;5005437;28;20046;-61
2022/11/04 01:23:41;;;;;;;9.23;8.15;;;11.00;99.90;;;;;;5003699;28;20052;-61
2022/11/04 01:26:11;;;;;;;9.00;7.68;;;11.10;99.90;;;;;;4987730;28;20053;-61
2022/11/04 01:28:38;;;;;;;8.73;7.82;;;11.00;99.90;;;;;;5004721;28;20046;-60
2022/11/04 01:31:15;;;;;;;8.55;7.60;;;11.00;99.90;;;;;;5004766;28;20423;-60
2022/11/04 01:33:41;;;;;;;5.40;2.95;;;10.80;99.90;;;;;;5004912;28;20053;-60
2022/11/04 01:36:08;;;;;;;7.90;5.20;;;10.90;99.90;;;;;;5005056;28;20038;-61
2022/11/04 01:38:34;;;;;;;7.22;5.45;;;10.90;99.90;;;;;;5005715;28;20354;-61
2022/11/04 01:41:00;;;;;;;6.45;3.90;;;10.70;99.90;;;;;;5006045;28;20034;-60
2022/11/04 01:43:44;;;;;;;5.53;4.35;;;10.80;99.90;;;;;;5004264;28;20033;-61
2022/11/04 01:46:16;;;;;;;4.85;3.78;;;10.70;99.90;;;;;;5005371;28;20100;-61
2022/11/04 01:48:42;;;;;;;4.03;3.20;;;10.50;99.90;;;;;;4986747;28;20045;-60
2022/11/04 01:51:07;;;;;;;5.18;2.90;;;10.50;99.90;;;;;;5005034;28;20049;-61
2022/11/04 01:53:40;;;;;;;5.55;3.10;;;10.60;99.90;;;;;;5003789;28;20045;-61
2022/11/04 01:56:13;;;;;;;6.25;2.42;;;10.40;99.90;;;;;;5004510;28;20084;-61
2022/11/04 01:58:44;;;;;;;4.20;2.33;;;10.40;99.90;;;;;;5003688;28;20128;-61
2022/11/04 02:01:11;;;;;;;5.78;2.53;;;10.50;99.90;;;;;;5004517;28;20042;-61
2022/11/04 02:04:24;;;;;;;3.97;1.90;;;10.40;99.90;;;;;;4986841;28;20068;-61
2022/11/04 02:06:46;;;;;;;3.53;1.77;;;10.50;99.90;;;;;;5016092;28;20068;-61
2022/11/04 02:09:12;;;;;;;5.38;2.20;;;10.50;99.90;;;;;;5004135;28;20065;-61
2022/11/04 02:14:22;;;;;;;3.75;1.73;;;10.40;99.90;;;;;;5005102;28;20127;-61
2022/11/04 02:16:48;;;;;;;6.88;1.73;;;10.30;99.90;;;;;;5004449;28;20042;-61
2022/11/04 02:19:45;;;;;;;2.53;1.00;;;10.30;99.90;;;;;;5004418;28;20053;-60
2022/11/04 02:22:41;;;;;;;2.83;0.98;;;10.40;99.90;;;;;;5004714;28;20566;-60
2022/11/04 02:25:29;;;;;;;4.18;1.00;;;10.50;99.90;;;;;;5004656;28;20128;-61
2022/11/04 02:28:21;;;;;;;3.80;0.70;;;10.50;99.90;;;;;;5001899;28;20050;-59
2022/11/04 02:30:56;;;;;;;2.05;0.60;;;10.40;99.90;;;;;;4980479;28;20054;-61
2022/11/04 02:33:38;;;;;;;3.08;0.70;;;10.60;99.90;;;;;;5003676;28;20050;-61
2022/11/04 02:36:04;;;;;;;1.58;0.52;;;10.50;99.90;;;;;;5004152;28;20462;-61
2022/11/04 02:38:45;;;;;;;2.72;0.93;;;10.60;99.90;;;;;;5003761;28;20046;-60
2022/11/04 02:41:55;;;;;;;2.90;0.88;;;10.50;99.90;;;;;;5004251;28;20053;-61
2022/11/04 02:44:36;;;;;;;1.23;0.52;;;10.60;99.90;;;;;;4942729;29;20061;-60
2022/11/04 02:47:05;;;;;;;1.58;0.55;;;10.50;99.90;;;;;;4943035;29;20051;-61
2022/11/04 02:49:40;;;;;;;2.30;0.75;;;10.40;99.90;;;;;;4978515;28;20061;-61
2022/11/04 02:52:17;;;;;;;2.05;0.60;;;10.30;99.90;;;;;;5002802;28;20053;-60
2022/11/04 02:54:52;;;;;;;2.13;0.60;;;10.30;99.90;;;;;;5001935;28;20088;-61
2022/11/04 02:57:25;;;;;;;5.18;0.75;;;10.40;99.90;;;;;;5002755;28;20396;-61
2022/11/04 03:00:26;;;;;;;3.33;0.80;;;10.30;99.90;;;;;;5007912;28;20045;-62
2022/11/04 03:02:58;;;;;;;3.90;0.90;;;10.20;99.90;;;;;;5023192;28;20045;-61
2022/11/04 03:05:31;;;;;;;2.38;0.88;;;10.40;99.90;;;;;;5013666;28;20044;-61
2022/11/04 03:08:01;;;;;;;3.50;0.85;;;10.30;99.90;;;;;;5008607;28;20053;-61
2022/11/04 03:10:37;;;;;;;3.92;0.82;;;10.20;99.90;;;;;;5003441;28;20046;-61
2022/11/04 03:13:19;;;;;;;3.78;0.80;;;10.30;99.90;;;;;;5001592;28;20128;-61
2022/11/04 03:15:52;;;;;;;4.07;0.77;;;10.30;99.90;;;;;;5003186;28;20053;-61
2022/11/04 03:18:36;;;;;;;2.75;0.80;;;10.30;99.90;;;;;;5002539;28;20135;-61
2022/11/04 03:21:05;;;;;;;3.75;0.75;;;10.50;99.90;;;;;;5002985;28;20045;-60
2022/11/04 03:23:32;;;;;;;2.50;0.80;;;10.30;99.90;;;;;;5002094;28;20053;-61
2022/11/04 03:26:09;;;;;;;6.38;0.77;;;10.50;99.90;;;;;;5021468;28;20191;-61
2022/11/04 03:28:52;;;;;;;3.33;0.65;;;10.40;99.90;;;;;;5005793;28;20061;-61
2022/11/04 03:31:42;;;;;;;2.63;0.60;;;10.30;99.90;;;;;;5022789;28;20049;-61
2022/11/04 03:34:08;;;;;;;4.20;0.75;;;10.40;99.90;;;;;;5022658;28;20045;-61
2022/11/04 03:36:33;;;;;;;1.50;0.60;;;10.50;99.90;;;;;;5022741;28;20046;-62
2022/11/04 03:38:59;;;;;;;3.58;0.70;;;10.40;99.90;;;;;;5023070;28;20128;-62
2022/11/04 03:41:46;;;;;;;2.30;0.55;;;10.50;99.90;;;;;;5021680;28;20515;-60
2022/11/04 03:44:12;;;;;;;4.53;0.52;;;10.30;99.90;;;;;;5004623;28;20068;-61
2022/11/04 03:46:38;;;;;;;0.95;0.30;;;10.30;99.90;;;;;;5022502;28;20730;-61
2022/11/04 03:49:05;;;;;;;2.17;0.52;;;10.30;99.90;;;;;;5021536;28;20056;-61
2022/11/04 03:51:30;;;;;;;3.55;0.40;;;10.20;99.90;;;;;;5022544;28;20033;-61
2022/11/04 03:53:57;;;;;;;1.83;0.50;;;10.40;99.90;;;;;;5022575;28;20112;-60
2022/11/04 03:56:48;;;;;;;1.52;0.40;;;10.40;99.90;;;;;;5021135;28;20046;-60
2022/11/04 03:59:56;;;;;;;1.45;0.40;;;10.30;99.90;;;;;;5022489;28;20060;-60
2022/11/04 04:02:34;;;;;;;1.05;0.40;;;10.20;99.90;;;;;;5004899;28;20496;-60
2022/11/04 04:05:05;;;;;;;1.95;0.30;;;10.30;99.90;;;;;;5016327;28;20928;-60
2022/11/04 04:07:38;;;;;;;2.42;0.47;;;10.30;99.90;;;;;;5013111;28;20048;-60
2022/11/04 04:10:40;;;;;;;2.33;0.60;;;10.10;99.90;;;;;;5004605;28;20096;-61
2022/11/04 04:13:15;;;;;;;0.60;0.30;;;10.20;99.90;;;;;;5020935;28;20057;-61
2022/11/04 04:15:49;;;;;;;1.27;0.40;;;10.20;99.90;;;;;;5021707;28;20400;-61
2022/11/04 04:18:19;;;;;;;0.65;0.30;;;10.30;99.90;;;;;;5021590;28;20179;-61
2022/11/04 04:20:46;;;;;;;1.58;0.50;;;10.20;99.90;;;;;;5021755;28;20072;-61
2022/11/04 04:28:52;;;;;;;0.60;0.30;;;10.10;99.90;;;;;;5021045;28;20132;-60
2022/11/04 04:31:48;;;;;;;1.20;0.40;;;10.10;99.90;;;;;;5004448;28;20460;-60
2022/11/04 04:34:05;;;;;;;1.67;0.47;;;10.20;99.90;;;;;;5021236;28;20115;-60
2022/11/04 04:36:36;;;;;;;1.35;0.65;;;10.10;99.90;;;;;;5021263;28;20045;-60
2022/11/04 04:47:23;;;;;;;2.30;0.70;;;10.10;99.90;;;;;;5022108;28;20053;-61
2022/11/04 04:49:53;;;;;;;1.52;0.60;;;10.10;99.90;;;;;;5004569;28;20045;-61
2022/11/04 04:52:20;;;;;;;2.33;0.70;;;10.10;99.90;;;;;;5004771;28;20052;-61
2022/11/04 04:54:46;;;;;;;1.38;0.52;;;10.20;99.90;;;;;;5021548;28;20124;-61
2022/11/04 04:57:12;;;;;;;1.80;0.60;;;10.10;99.90;;;;;;5021069;28;20113;-61
2022/11/04 04:59:38;;;;;;;0.95;0.40;;;10.10;99.90;;;;;;5020634;28;20128;-60
2022/11/04 05:02:04;;;;;;;1.58;0.52;;;10.10;99.90;;;;;;5002793;28;20627;-60
2022/11/04 05:04:29;;;;;;;4.40;0.73;;;10.00;99.90;;;;;;5019643;28;20420;-60
2022/11/04 05:06:55;;;;;;;2.60;0.60;;;9.90;99.90;;;;;;5010191;28;20173;-59
2022/11/04 05:09:21;;;;;;;3.78;0.95;;;9.90;99.90;;;;;;5001253;28;20125;-61
2022/11/04 05:11:47;;;;;;;4.68;0.98;;;9.80;99.90;;;;;;5000755;28;20099;-60
2022/11/04 05:14:12;;;;;;;4.10;0.93;;;10.00;99.90;;;;;;5001580;28;20054;-61
2022/11/04 05:16:38;;;;;;;2.15;0.70;;;9.90;99.90;;;;;;5000787;28;20084;-61
2022/11/04 05:19:04;;;;;;;1.90;0.50;;;9.90;99.90;;;;;;5001809;28;20485;-60
2022/11/04 05:21:29;;;;;;;3.40;0.73;;;9.80;99.90;;;;;;5001652;28;20536;-61
2022/11/04 05:23:55;;;;;;;1.95;0.73;;;9.80;99.90;;;;;;5001583;28;20092;-60
2022/11/04 05:26:21;;;;;;;4.40;1.27;;;9.80;99.90;;;;;;4999965;28;20047;-60
2022/11/04 05:28:46;;;;;;;3.03;1.27;;;9.80;99.90;;;;;;5004015;28;20041;-61
2022/11/04 05:31:12;;;;;;;5.57;2.10;;;9.70;99.90;;;;;;5005546;28;20057;-61
2022/11/04 05:33:38;;;;;;;6.13;2.00;;;9.80;99.90;;;;;;5005286;28;20050;-61
2022/11/04 05:36:08;;;;;;;4.90;1.35;;;9.70;99.90;;;;;;5004731;28;20054;-61
2022/11/04 05:38:34;;;;;;;5.15;1.38;;;9.80;99.90;;;;;;5005251;28;20046;-60
2022/11/04 05:41:00;;;;;;;4.68;1.02;;;9.70;99.90;;;;;;4987369;28;20053;-60
2022/11/04 05:43:26;;;;;;;1.88;0.75;;;9.70;99.90;;;;;;5004821;28;20037;-60
2022/11/04 05:45:52;;;;;;;3.63;0.80;;;9.80;99.90;;;;;;5003671;28;20393;-60
2022/11/04 05:48:17;;;;;;;2.47;0.90;;;9.60;99.90;;;;;;5004456;28;20037;-61
2022/11/04 05:50:43;;;;;;;2.75;1.00;;;9.70;99.90;;;;;;4988002;28;20048;-60
2022/11/04 05:53:09;;;;;;;2.25;0.98;;;9.70;99.90;;;;;;5004337;28;20046;-60
2022/11/04 05:55:34;;;;;;;5.03;0.85;;;9.50;99.90;;;;;;5005164;28;20735;-60
2022/11/04 05:58:00;;;;;;;3.03;1.10;;;9.60;99.90;;;;;;4986354;28;20045;-60
2022/11/04 06:00:26;;;;;;;4.45;1.45;;;9.60;99.90;;;;;;5004400;28;20053;-61
2022/11/04 06:02:55;;;;;;;4.40;0.90;;;9.50;99.90;;;;;;5004722;28;20041;-61
2022/11/04 06:05:22;;;;;;;3.58;1.10;;;9.50;99.90;;;;;;5009701;28;20053;-61
2022/11/04 06:07:47;;;;;;;1.95;0.63;;;9.30;99.90;;;;;;5010938;28;20044;-61
2022/11/04 06:10:13;;;;;;;2.35;1.00;;;9.40;99.90;;;;;;5004170;28;20516;-61
2022/11/04 06:12:39;;;;;;;4.63;1.10;;;9.40;99.90;;;;;;5003588;28;20138;-60
2022/11/04 06:15:05;;;;;;;3.63;0.90;;;9.30;99.90;;;;;;5004162;28;20599;-60
2022/11/04 06:17:31;;;;;;;2.30;0.73;;;9.20;99.90;;;;;;5003475;28;20093;-60
2022/11/04 06:19:56;;;;;;;3.05;0.77;;;9.10;99.90;;;;;;5003863;28;20046;-60
2022/11/04 06:22:22;;;;;;;2.50;0.80;;;9.30;99.90;;;;;;5004603;28;20135;-61
2022/11/04 06:24:47;;;;;;;4.93;0.82;;;9.20;99.90;;;;;;5004014;28;20599;-61
2022/11/04 06:27:13;;;;;;;4.18;0.68;;;9.20;99.90;;;;;;5003923;28;20634;-61
2022/11/04 06:29:40;;;;;;;1.95;0.70;;;9.20;99.90;;;;;;5004411;28;20049;-60
2022/11/04 06:32:11;;;;;;;3.08;0.60;;;8.90;99.90;;;;;;5003971;28;20049;-60
2022/11/04 06:34:37;;;;;;;2.15;0.60;;;9.10;99.90;;;;;;5003265;28;20125;-60
2022/11/04 06:37:03;;;;;;;3.22;0.85;;;9.00;99.90;;;;;;5004528;28;20046;-60
2022/11/04 06:39:28;;;;;;;1.73;0.80;;;9.00;99.90;;;;;;5003608;28;20111;-60
2022/11/04 06:41:54;;;;;;;2.53;0.60;;;8.90;99.90;;;;;;5003747;28;20046;-60
2022/11/04 06:44:20;;;;;;;4.82;0.73;;;9.00;99.90;;;;;;5003405;28;20121;-59
2022/11/04 06:46:46;;;;;;;3.40;0.80;;;9.10;99.90;;;;;;5004576;28;20529;-59
2022/11/04 06:49:17;;;;;;;2.30;0.60;;;9.10;99.90;;;;;;4986666;28;20133;-59
2022/11/04 06:51:43;;;;;;;2.90;0.90;;;9.00;99.90;;;;;;5003169;28;20038;-60
2022/11/04 06:54:09;;;;;;;3.28;0.68;;;9.10;99.90;;;;;;4986211;28;20053;-60
2022/11/04 06:56:35;;;;;;;3.00;0.90;;;9.00;99.90;;;;;;5003290;28;20468;-60
2022/11/04 06:59:01;;;;;;;3.60;0.85;;;9.10;99.90;;;;;;5003078;28;20053;-60
2022/11/04 07:01:29;;;;;;;2.95;0.80;;;9.10;99.90;;;;;;4985221;28;20784;-59
2022/11/04 07:03:57;;;;;;;6.95;0.90;;;9.10;99.90;;;;;;5003425;28;20740;-60
2022/11/04 07:06:23;;;;;;;3.25;0.98;;;9.10;99.90;;;;;;5015131;28;20043;-61
2022/11/04 07:08:51;;;;;;;4.13;0.80;;;9.20;99.90;;;;;;5003499;28;20417;-60
2022/11/04 07:11:18;;;;;;;4.75;0.80;;;9.20;99.90;;;;;;5002871;28;20038;-60
2022/11/04 07:13:44;;;;;;;5.38;1.20;;;9.30;99.90;;;;;;5003676;28;20042;-60
2022/11/04 07:16:10;;;;;;;4.90;1.63;;;9.40;99.90;;;;;;4985698;28;20453;-61
2022/11/04 07:18:35;;;;;;;9.57;2.50;;;9.20;99.90;;;;;;4985520;28;20779;-60
2022/11/04 07:21:02;;;;;;;9.57;3.42;;;9.20;99.90;;;;;;4986755;28;20101;-60
2022/11/04 07:23:27;;;;;;;8.73;3.40;;;9.20;99.90;;;;;;5003866;28;20087;-61
2022/11/04 07:25:58;;;;;;;6.95;3.08;;;9.20;99.90;;;;;;5001794;28;20699;-61
2022/11/04 07:28:23;;;;;;;9.13;3.17;;;9.20;99.90;;;;;;5002905;28;20046;-61
2022/11/04 07:30:49;;;;;;;5.50;1.80;;;9.20;99.90;;;;;;5003923;28;20053;-60
2022/11/04 07:33:15;;;;;;;5.35;1.42;;;9.30;99.90;;;;;;5003267;28;20477;-60
2022/11/04 07:35:40;;;;;;;3.00;1.40;;;9.10;99.90;;;;;;5002369;28;20061;-61
2022/11/04 07:38:06;;;;;;;4.80;1.40;;;9.00;99.90;;;;;;5004454;28;20070;-60
2022/11/04 07:40:34;;;;;;;4.53;1.58;;;9.10;99.90;;;;;;4985015;28;20058;-62
2022/11/04 07:43:00;;;;;;;2.97;1.00;;;9.10;99.90;;;;;;5002351;28;20432;-62
2022/11/04 07:45:26;;;;;;;4.90;1.27;;;9.10;99.90;;;;;;5003284;28;20041;-61
2022/11/04 07:47:52;;;;;;;5.20;1.02;;;9.10;99.90;;;;;;5003281;28;20053;-62
2022/11/04 07:50:17;;;;;;;3.53;0.95;;;9.20;99.90;;;;;;5002817;28;20578;-61
2022/11/04 07:52:44;;;;;;;3.47;0.90;;;9.10;99.90;;;;;;5002375;28;20459;-62
2022/11/04 07:55:12;;;;;;;2.28;0.93;;;9.10;99.90;;;;;;5002996;28;20046;-62
2022/11/04 07:57:38;;;;;;;3.72;0.82;;;9.10;99.90;;;;;;5002184;28;20045;-62
2022/11/04 08:00:05;;;;;;;2.35;0.90;;;9.20;99.90;;;;;;5001544;28;20080;-62
2022/11/04 08:02:31;;;;;;;3.22;0.85;;;9.20;99.90;;;;;;5002737;28;20694;-61
2022/11/04 08:04:57;;;;;;;2.90;1.05;;;8.60;99.90;;;;;;5005143;28;20085;-62
2022/11/04 08:07:23;;;;;;;5.18;1.20;;;9.20;99.90;;;;;;4994408;28;20088;-62
2022/11/04 08:09:48;;;;;;;3.63;0.90;;;9.10;99.90;;;;;;5002893;28;20057;-62
2022/11/04 08:12:14;;;;;;;8.00;1.20;;;9.20;99.90;;;;;;5001864;28;20054;-62
2022/11/04 08:14:40;;;;;;;1.98;0.80;;;9.40;99.90;;;;;;5002580;28;20041;-62
2022/11/04 08:17:05;;;;;;;4.18;0.95;;;9.40;99.90;;;;;;5001975;28;20168;-61
2022/11/04 08:19:31;;;;;;;3.70;1.00;;;9.30;99.90;;;;;;5002160;28;20049;-61
2022/11/04 08:21:57;;;;;;;3.08;1.00;;;9.60;99.90;;;;;;4984738;28;20069;-61
2022/11/04 08:24:24;;;;;;;6.22;1.00;;;9.60;99.90;;;;;;5003142;28;20053;-60
2022/11/04 08:26:49;;;;;;;6.93;1.45;;;9.50;99.90;;;;;;5001618;28;20046;-62
2022/11/04 08:29:15;;;;;;;4.68;1.30;;;9.70;99.90;;;;;;5002722;28;20050;-62
2022/11/04 08:31:42;;;;;;;4.47;1.30;;;9.80;99.90;;;;;;5002354;28;20046;-61
2022/11/04 08:34:08;;;;;;;4.82;1.58;;;9.70;99.90;;;;;;5002698;28;20048;-60
2022/11/04 08:36:36;;;;;;;3.45;1.40;;;9.80;99.90;;;;;;5001588;28;20049;-60
2022/11/04 08:39:03;;;;;;;3.25;1.48;;;10.00;99.90;;;;;;5002748;28;20132;-61
2022/11/04 08:41:31;;;;;;;3.60;1.55;;;9.90;99.90;;;;;;5002505;28;20527;-62
2022/11/04 08:44:03;;;;;;;4.20;1.50;;;10.00;99.90;;;;;;5000770;28;20446;-62
2022/11/04 08:46:32;;;;;;;4.72;1.40;;;10.00;99.90;;;;;;5002468;28;20045;-67
2022/11/04 08:48:57;;;;;;;3.28;1.33;;;10.10;99.90;;;;;;5002121;28;20041;-67
2022/11/04 08:51:25;;;;;;;3.92;1.60;;;10.20;99.90;;;;;;5002039;28;20049;-66
2022/11/04 08:53:51;;;;;;;4.43;1.70;;;10.10;99.90;;;;;;5002928;28;20432;-67
2022/11/04 08:56:29;;;;;;;9.07;1.92;;;10.20;99.90;;;;;;5001564;28;20049;-66
2022/11/04 08:58:57;;;;;;;9.60;2.08;;;10.30;99.90;;;;;;4983257;28;20165;-63
2022/11/04 09:01:24;;;;;;;5.32;1.65;;;10.30;99.90;;;;;;5002138;28;20049;-60
2022/11/04 09:03:50;;;;;;;4.47;1.52;;;10.50;99.90;;;;;;5003684;28;20049;-66
2022/11/04 09:06:37;;;;;;;6.20;1.40;;;10.70;99.90;;;;;;5015467;28;20041;-67
2022/11/04 09:09:04;;;;;;;4.50;1.17;;;10.60;99.90;;;;;;5005726;28;20042;-67
2022/11/04 09:11:32;;;;;;;3.78;1.25;;;10.80;99.90;;;;;;5006054;28;20058;-67
2022/11/04 09:13:59;;;;;;;2.80;0.90;;;10.90;99.90;;;;;;5006584;28;20050;-67
2022/11/04 09:16:26;;;;;;;4.57;1.13;;;11.00;99.90;;;;;;5005902;28;20079;-67
2022/11/04 09:18:52;;;;;;;4.30;1.13;;;11.00;99.90;;;;;;5006215;28;20054;-67
2022/11/04 09:21:17;;;;;;;3.83;1.25;;;11.20;99.90;;;;;;5004831;28;20046;-67
2022/11/04 09:23:43;;;;;;;2.70;1.00;;;11.20;99.90;;;;;;5004944;28;20056;-66
2022/11/04 09:26:11;;;;;;;11.00;1.80;;;11.30;99.90;;;;;;5003782;28;20045;-67
2022/11/04 09:28:37;;;;;;;9.77;1.80;;;11.40;99.90;;;;;;5004075;28;20049;-66
2022/11/04 09:31:08;;;;;;;8.75;1.42;;;11.50;99.90;;;;;;5004826;28;20560;-67
2022/11/04 09:33:34;;;;;;;8.60;1.90;;;11.40;99.90;;;;;;5005468;28;20424;-67
2022/11/04 09:36:00;;;;;;;7.30;1.67;;;11.80;99.90;;;;;;5005900;28;20042;-67
2022/11/04 09:38:25;;;;;;;9.52;2.42;;;12.30;99.90;;;;;;4987293;28;20111;-67
2022/11/04 09:40:51;;;;;;;8.23;1.60;;;12.20;99.90;;;;;;5003073;28;20050;-67
2022/11/04 09:43:22;;;;;;;6.47;1.33;;;12.90;99.90;;;;;;5005044;28;20746;-67
2022/11/04 09:45:48;;;;;;;8.05;1.83;;;13.30;99.90;;;;;;5004504;28;20042;-67
2022/11/04 09:48:38;;;;;;;6.35;1.30;;;13.60;99.90;;;;;;5005201;28;20049;-67
2022/11/04 09:51:05;;;;;;;6.35;1.25;;;13.40;99.90;;;;;;5003207;28;20056;-67
2022/11/04 09:53:44;;;;;;;7.82;1.60;;;13.40;99.90;;;;;;5004355;28;20048;-68
2022/11/04 09:56:24;;;;;;;5.40;1.30;;;14.00;99.90;;;;;;5004493;28;20077;-67
2022/11/04 09:58:50;;;;;;;4.38;0.80;;;13.70;99.90;;;;;;5004982;28;20053;-67
2022/11/04 10:01:26;;;;;;;4.88;1.00;;;14.00;99.90;;;;;;5005130;28;20100;-67
2022/11/04 10:04:30;;;;;;;5.13;1.00;;;14.00;99.90;;;;;;5004666;28;20049;-67
2022/11/04 10:07:21;;;;;;;3.83;1.10;;;13.70;99.90;;;;;;4976645;28;20084;-67
2022/11/04 10:10:18;;;;;;;3.40;0.95;;;13.50;99.90;;;;;;5025186;28;20081;-67
2022/11/04 10:12:53;;;;;;;4.90;0.95;;;13.80;99.90;;;;;;5025025;28;20623;-67
2022/11/04 10:15:34;;;;;;;;;;;14.00;99.90;;;;;;5024738;28;20468;-67
2022/11/04 10:18:12;;;;;;;4.63;1.08;;;13.60;99.90;;;;;;5025182;28;19921;-67
2022/11/04 10:20:46;;;;;;;4.32;1.00;;;13.60;99.90;;;;;;5024870;28;20592;-67
2022/11/04 10:23:39;;;;;;;4.03;0.90;;;13.10;99.90;;;;;;5023891;28;20041;-67
2022/11/04 10:26:07;;;;;;;4.25;0.93;;;13.00;99.90;;;;;;5023524;28;20084;-73
2022/11/04 10:28:55;;;;;;;3.88;1.00;;;12.90;99.90;;;;;;5023274;28;20063;-68
2022/11/04 10:31:20;;;;;;;5.13;1.00;;;12.40;99.90;;;;;;5023806;28;20081;-67
2022/11/04 10:33:54;;;;;;;5.45;0.98;;;12.30;99.90;;;;;;5023485;28;20527;-67
2022/11/04 10:36:21;;;;;;;6.45;1.33;;;12.10;99.90;;;;;;5023611;28;20046;-67
2022/11/04 10:38:54;;;;;;;6.40;1.02;;;12.00;99.90;;;;;;5023261;28;20140;-67
2022/11/04 10:41:23;;;;;;;3.00;1.08;;;12.30;99.90;;;;;;5022852;28;20179;-67
2022/11/04 10:43:53;;;;;;;3.95;1.00;;;12.10;99.90;;;;;;5006315;28;20099;-67
2022/11/04 10:46:48;;;;;;;3.85;1.02;;;12.00;99.90;;;;;;5006095;28;20349;-67
2022/11/04 10:49:32;;;;;;;5.70;1.10;;;12.00;99.90;;;;;;5023881;28;20135;-67
2022/11/04 10:51:58;;;;;;;3.42;1.25;;;12.00;99.90;;;;;;5023315;28;20377;-67
2022/11/04 10:54:26;;;;;;;3.47;1.20;;;11.90;99.90;;;;;;5024277;28;20068;-67
2022/11/04 10:56:55;;;;;;;3.30;1.30;;;12.00;99.90;;;;;;5023462;28;20053;-67
2022/11/04 10:59:41;;;;;;;4.18;1.00;;;12.10;99.90;;;;;;5023430;28;20045;-67
2022/11/04 11:02:08;;;;;;;3.83;1.05;;;12.60;99.90;;;;;;5024238;28;20144;-67
2022/11/04 11:04:36;;;;;;;4.75;1.20;;;12.40;99.90;;;;;;5020957;28;20042;-67
2022/11/04 11:07:05;;;;;;;5.50;1.45;;;12.20;99.90;;;;;;5011702;28;20083;-67
2022/11/04 11:09:50;;;;;;;6.55;1.33;;;12.20;99.90;;;;;;5004218;28;20054;-67
2022/11/04 11:12:22;;;;;;;;;;;12.50;99.90;;;;;;4985835;28;20057;-67
2022/11/04 11:14:49;;;;;;;3.92;1.48;;;12.30;99.90;;;;;;5004302;28;20336;-66
2022/11/04 11:17:36;;;;;;;6.30;1.60;;;12.30;99.90;;;;;;5003761;28;20046;-67
2022/11/04 11:20:15;;;;;;;5.05;1.30;;;12.20;99.90;;;;;;5003180;28;20124;-67
2022/11/04 11:22:43;;;;;;;8.10;1.40;;;12.40;99.90;;;;;;5002604;28;20089;-67
2022/11/04 11:25:32;;;;;;;6.35;1.55;;;12.70;99.90;;;;;;5001523;28;20104;-67
2022/11/04 11:28:01;;;;;;;4.72;1.45;;;12.60;99.90;;;;;;5002959;28;20046;-66
2022/11/04 11:30:30;;;;;;;4.45;1.67;;;12.40;99.90;;;;;;5002069;28;20546;-67
2022/11/04 11:33:31;;;;;;;4.38;1.88;;;12.30;99.90;;;;;;5002760;28;20433;-67
2022/11/04 11:36:05;;;;;;;4.82;1.80;;;12.30;99.90;;;;;;4979551;28;20054;-67
2022/11/04 11:38:33;;;;;;;6.78;2.20;;;12.10;99.90;;;;;;5003071;28;20165;-67
2022/11/04 11:41:09;;;;;;;5.90;1.95;;;12.40;99.90;;;;;;5001229;28;20046;-67
2022/11/04 11:43:43;;;;;;;5.32;1.92;;;12.40;99.90;;;;;;5003213;28;20045;-67
2022/11/04 11:46:10;;;;;;;4.77;1.57;;;13.00;99.90;;;;;;5003377;28;20388;-67
2022/11/04 11:48:41;;;;;;;6.38;1.60;;;13.00;99.90;;;;;;5002807;28;20088;-67
2022/11/04 11:51:14;;;;;;;5.47;2.05;;;13.40;99.90;;;;;;4985609;28;20129;-67
2022/11/04 11:53:57;;;;;;;6.00;1.98;;;13.30;99.90;;;;;;5003493;28;20042;-67
2022/11/04 11:56:31;;;;;;;6.32;1.90;;;13.40;99.90;;;;;;5002958;28;20050;-67
2022/11/04 11:59:04;;;;;;;7.03;2.05;;;13.00;99.90;;;;;;5003008;28;20400;-67
2022/11/04 12:01:33;;;;;;;8.32;2.55;;;12.70;99.90;;;;;;4985470;28;20140;-67
2022/11/04 12:03:59;;;;;;;7.70;2.15;;;12.50;99.90;;;;;;5002914;28;20080;-67
2022/11/04 12:06:56;;;;;;;5.25;2.20;;;12.60;99.90;;;;;;5011105;28;20136;-67
2022/11/04 12:09:46;;;;;;;6.75;1.73;;;12.40;99.90;;;;;;5022320;28;20056;-67
2022/11/04 12:12:29;;;;;;;5.85;1.75;;;12.30;99.90;;;;;;5022161;28;20053;-67
2022/11/04 12:15:21;;;;;;;4.03;1.15;;;12.50;99.90;;;;;;5022356;28;20052;-67
2022/11/04 12:18:01;;;;;;;5.50;1.40;;;12.50;99.90;;;;;;5021537;28;20034;-67
2022/11/04 12:20:48;;;;;;;6.57;1.70;;;12.80;99.90;;;;;;5021864;28;20500;-67
2022/11/04 12:23:38;;;;;;;7.07;1.55;;;12.70;99.90;;;;;;5022940;28;20041;-67
2022/11/04 12:26:15;;;;;;;7.57;1.90;;;12.70;99.90;;;;;;5022252;28;20042;-66
2022/11/04 12:28:44;;;;;;;6.53;1.50;;;12.60;99.90;;;;;;5021921;28;20053;-66
2022/11/04 12:31:18;;;;;;;4.32;1.40;;;12.60;99.90;;;;;;5021680;28;20085;-66
2022/11/04 12:33:50;;;;;;;;;;;12.50;99.90;;;;;;5005462;28;20132;-67
2022/11/04 12:36:39;;;;;;;4.80;1.60;;;12.50;99.90;;;;;;5022049;28;19925;-67
2022/11/04 12:39:28;;;;;;;6.10;1.48;;;12.30;99.90;;;;;;5008610;28;20053;-66
2022/11/04 12:42:26;;;;;;;5.80;1.35;;;12.50;99.90;;;;;;5024802;28;20404;-67
2022/11/04 12:45:03;;;;;;;4.70;1.33;;;12.00;99.90;;;;;;4970923;28;20062;-67
2022/11/04 12:47:46;;;;;;;3.50;0.75;;;11.20;99.90;;;;;;5026146;28;20085;-66
2022/11/04 12:50:33;;;;;;;5.22;1.30;;;10.80;99.90;;;;;;5025765;28;20056;-67
2022/11/04 12:53:16;;;;;;;3.47;1.00;;;10.70;99.90;;;;;;5026742;28;20041;-67
2022/11/04 12:56:03;;;;;;;5.32;1.20;;;10.60;99.90;;;;;;5025170;28;20668;-66
2022/11/04 12:58:57;;;;;;;4.10;1.58;;;10.50;99.90;;;;;;5025951;28;20053;-66
2022/11/04 13:01:33;;;;;;;5.05;1.25;;;10.90;99.90;;;;;;5008048;28;20049;-67
2022/11/04 13:04:25;;;;;;;4.50;1.20;;;11.30;99.90;;;;;;5025916;28;20098;-66
2022/11/04 13:06:59;;;;;;;4.15;1.00;;;11.50;99.90;;;;;;5015782;28;20038;-66
2022/11/04 13:09:57;;;;;;;;;;;11.80;99.90;;;;;;5004709;28;20054;-66
2022/11/04 13:12:52;;;;;;;4.82;1.13;;;11.90;99.90;;;;;;4961596;28;20324;-67
2022/11/04 13:15:22;;;;;;;6.32;0.73;;;12.10;99.90;;;;;;5004006;28;20750;-66
2022/11/04 13:17:53;;;;;;;6.43;0.90;;;12.40;99.90;;;;;;5005243;28;20042;-67
2022/11/04 13:20:51;;;;;;;5.57;0.95;;;12.60;99.90;;;;;;5005513;28;20154;-66
2022/11/04 13:23:44;;;;;;;3.08;0.60;;;12.70;99.90;;;;;;5004382;28;20049;-67
2022/11/04 13:26:13;;;;;;;5.40;0.93;;;12.90;99.90;;;;;;4977441;28;20057;-65
2022/11/04 13:28:40;;;;;;;3.67;0.93;;;13.00;99.90;;;;;;5005431;28;20034;-61
2022/11/04 13:31:30;;;;;;;4.60;1.40;;;13.20;99.90;;;;;;5006078;28;20049;-63
2022/11/04 13:34:07;;;;;;;4.13;1.30;;;13.20;99.90;;;;;;5005124;28;20113;-62
2022/11/04 13:36:50;;;;;;;5.70;1.20;;;13.20;99.90;;;;;;5005953;28;20499;-62
2022/11/04 13:39:32;;;;;;;6.65;1.35;;;13.10;99.90;;;;;;4987186;28;20046;-62
2022/11/04 13:42:26;;;;;;;4.82;1.38;;;13.00;99.90;;;;;;5005760;28;20502;-63
2022/11/04 13:44:58;;;;;;;7.78;1.52;;;12.90;99.90;;;;;;5005252;28;20192;-65
2022/11/04 13:47:35;;;;;;;4.63;1.40;;;12.80;99.90;;;;;;4987409;28;20053;-62